sensor_id;sensor_type;location;lat;lon;timestamp;temperature;humidity
17621;DHT22;8929;51.008;6.804;2023-02-15T00:00:25;4.70;1.00
17621;DHT22;8929;51.008;6.804;2023-02-15T00:02:51;4.70;1.00
17621;DHT22;8929;51.008;6.804;2023-02-15T00:05:16;4.60;1.00
17621;DHT22;8929;51.008;6.804;2023-02-15T00:07:42;4.60;1.00
17621;DHT22;8929;51.008;6.804;2023-02-15T00:10:07;4.70;1.00
17621;DHT22;8929;51.008;6.804;2023-02-15T00:12:33;4.60;1.00
17621;DHT22;8929;51.008;6.804;2023-02-15T00:14:58;4.60;1.00
17621;DHT22;8929;51.008;6.804;2023-02-15T00:17:26;4.60;1.00
17621;DHT22;8929;51.008;6.804;2023-02-15T00:19:52;4.50;1.00
17621;DHT22;8929;51.008;6.804;2023-02-15T00:22:17;4.50;1.00
17621;DHT22;8929;51.008;6.804;2023-02-15T00:24:43;4.50;1.00
17621;DHT22;8929;51.008;6.804;2023-02-15T00:27:08;4.50;1.00
17621;DHT22;8929;51.008;6.804;2023-02-15T00:29:34;4.50;1.00
17621;DHT22;8929;51.008;6.804;2023-02-15T00:31:59;4.50;1.00
17621;DHT22;8929;51.008;6.804;2023-02-15T00:34:26;4.50;1.00
17621;DHT22;8929;51.008;6.804;2023-02-15T00:36:52;4.40;1.00
17621;DHT22;8929;51.008;6.804;2023-02-15T00:39:17;4.40;1.00
17621;DHT22;8929;51.008;6.804;2023-02-15T00:41:43;4.40;1.00
17621;DHT22;8929;51.008;6.804;2023-02-15T00:44:09;4.40;1.00
17621;DHT22;8929;51.008;6.804;2023-02-15T00:46:35;4.30;1.00
17621;DHT22;8929;51.008;6.804;2023-02-15T00:49:00;4.30;1.00
17621;DHT22;8929;51.008;6.804;2023-02-15T00:51:26;4.40;1.00
17621;DHT22;8929;51.008;6.804;2023-02-15T00:53:51;4.30;1.00
17621;DHT22;8929;51.008;6.804;2023-02-15T00:56:17;4.30;1.00
17621;DHT22;8929;51.008;6.804;2023-02-15T00:58:42;4.30;1.00
17621;DHT22;8929;51.008;6.804;2023-02-15T01:01:09;4.30;1.00
17621;DHT22;8929;51.008;6.804;2023-02-15T01:03:35;4.20;1.00
17621;DHT22;8929;51.008;6.804;2023-02-15T01:06:01;4.30;1.00
17621;DHT22;8929;51.008;6.804;2023-02-15T01:08:26;4.20;1.00
17621;DHT22;8929;51.008;6.804;2023-02-15T01:10:52;4.20;1.00
17621;DHT22;8929;51.008;6.804;2023-02-15T01:13:18;4.20;1.00
17621;DHT22;8929;51.008;6.804;2023-02-15T01:15:43;4.20;1.00
17621;DHT22;8929;51.008;6.804;2023-02-15T01:18:09;4.20;1.00
17621;DHT22;8929;51.008;6.804;2023-02-15T01:20:35;4.20;1.00
17621;DHT22;8929;51.008;6.804;2023-02-15T01:23:04;4.20;1.00
17621;DHT22;8929;51.008;6.804;2023-02-15T01:25:30;4.20;1.00
17621;DHT22;8929;51.008;6.804;2023-02-15T01:27:55;4.20;1.00
17621;DHT22;8929;51.008;6.804;2023-02-15T01:30:21;4.20;1.00
17621;DHT22;8929;51.008;6.804;2023-02-15T01:32:46;4.20;1.00
17621;DHT22;8929;51.008;6.804;2023-02-15T01:35:12;4.20;1.00
17621;DHT22;8929;51.008;6.804;2023-02-15T01:37:37;4.20;1.00
17621;DHT22;8929;51.008;6.804;2023-02-15T01:40:04;4.20;1.00
17621;DHT22;8929;51.008;6.804;2023-02-15T01:42:30;4.20;1.00
17621;DHT22;8929;51.008;6.804;2023-02-15T01:44:59;4.10;1.00
17621;DHT22;8929;51.008;6.804;2023-02-15T01:47:31;4.10;1.00
17621;DHT22;8929;51.008;6.804;2023-02-15T01:50:06;4.10;1.00
17621;DHT22;8929;51.008;6.804;2023-02-15T01:52:34;4.10;1.00
17621;DHT22;8929;51.008;6.804;2023-02-15T01:55:01;4.10;1.00
17621;DHT22;8929;51.008;6.804;2023-02-15T01:57:27;4.00;1.00
17621;DHT22;8929;51.008;6.804;2023-02-15T01:59:54;4.00;1.00
17621;DHT22;8929;51.008;6.804;2023-02-15T02:02:21;4.00;1.00
17621;DHT22;8929;51.008;6.804;2023-02-15T02:04:53;4.00;1.00
17621;DHT22;8929;51.008;6.804;2023-02-15T02:07:22;4.00;1.00
17621;DHT22;8929;51.008;6.804;2023-02-15T02:09:48;3.90;1.00
17621;DHT22;8929;51.008;6.804;2023-02-15T02:12:14;3.90;1.00
17621;DHT22;8929;51.008;6.804;2023-02-15T02:14:40;3.90;1.00
17621;DHT22;8929;51.008;6.804;2023-02-15T02:17:12;3.90;1.00
17621;DHT22;8929;51.008;6.804;2023-02-15T02:27:48;3.80;1.00
17621;DHT22;8929;51.008;6.804;2023-02-15T02:30:20;3.80;1.00
17621;DHT22;8929;51.008;6.804;2023-02-15T02:45:52;3.70;4.50
17621;DHT22;8929;51.008;6.804;2023-02-15T02:48:19;3.70;3.10
17621;DHT22;8929;51.008;6.804;2023-02-15T02:50:46;3.70;3.30
17621;DHT22;8929;51.008;6.804;2023-02-15T02:53:11;3.70;4.30
17621;DHT22;8929;51.008;6.804;2023-02-15T02:55:47;3.60;4.50
17621;DHT22;8929;51.008;6.804;2023-02-15T03:03:49;3.60;7.00
17621;DHT22;8929;51.008;6.804;2023-02-15T03:06:21;3.60;4.20
17621;DHT22;8929;51.008;6.804;2023-02-15T03:08:51;3.60;7.10
17621;DHT22;8929;51.008;6.804;2023-02-15T03:11:19;3.60;8.90
17621;DHT22;8929;51.008;6.804;2023-02-15T03:13:44;3.50;9.60
17621;DHT22;8929;51.008;6.804;2023-02-15T03:16:12;3.50;9.30
17621;DHT22;8929;51.008;6.804;2023-02-15T03:18:51;3.50;10.70
17621;DHT22;8929;51.008;6.804;2023-02-15T03:21:24;3.50;11.70
17621;DHT22;8929;51.008;6.804;2023-02-15T03:23:52;3.40;13.70
17621;DHT22;8929;51.008;6.804;2023-02-15T03:26:18;3.40;13.20
17621;DHT22;8929;51.008;6.804;2023-02-15T03:28:45;3.40;18.30
17621;DHT22;8929;51.008;6.804;2023-02-15T03:31:11;3.40;18.00
17621;DHT22;8929;51.008;6.804;2023-02-15T03:33:40;3.40;18.00
17621;DHT22;8929;51.008;6.804;2023-02-15T03:41:24;3.30;19.00
17621;DHT22;8929;51.008;6.804;2023-02-15T03:44:02;3.30;18.60
17621;DHT22;8929;51.008;6.804;2023-02-15T03:49:44;3.30;19.50
17621;DHT22;8929;51.008;6.804;2023-02-15T03:52:13;3.30;20.50
17621;DHT22;8929;51.008;6.804;2023-02-15T03:54:39;3.20;20.00
17621;DHT22;8929;51.008;6.804;2023-02-15T03:59:56;3.20;21.30
17621;DHT22;8929;51.008;6.804;2023-02-15T04:02:52;3.10;23.40
17621;DHT22;8929;51.008;6.804;2023-02-15T04:05:20;3.10;26.20
17621;DHT22;8929;51.008;6.804;2023-02-15T04:07:45;3.10;28.50
17621;DHT22;8929;51.008;6.804;2023-02-15T04:10:11;3.10;27.10
17621;DHT22;8929;51.008;6.804;2023-02-15T04:13:14;3.10;24.50
17621;DHT22;8929;51.008;6.804;2023-02-15T04:15:40;3.10;26.30
17621;DHT22;8929;51.008;6.804;2023-02-15T04:18:24;3.10;27.10
17621;DHT22;8929;51.008;6.804;2023-02-15T04:21:08;3.10;31.00
17621;DHT22;8929;51.008;6.804;2023-02-15T04:23:52;3.10;26.20
17621;DHT22;8929;51.008;6.804;2023-02-15T04:26:36;3.10;25.80
17621;DHT22;8929;51.008;6.804;2023-02-15T04:29:01;3.00;31.30
17621;DHT22;8929;51.008;6.804;2023-02-15T04:31:27;3.00;29.00
17621;DHT22;8929;51.008;6.804;2023-02-15T04:33:52;3.10;29.40
17621;DHT22;8929;51.008;6.804;2023-02-15T04:36:18;3.10;27.70
17621;DHT22;8929;51.008;6.804;2023-02-15T04:38:43;3.00;24.40
17621;DHT22;8929;51.008;6.804;2023-02-15T04:41:09;3.10;26.30
17621;DHT22;8929;51.008;6.804;2023-02-15T04:43:35;3.00;25.50
17621;DHT22;8929;51.008;6.804;2023-02-15T04:46:01;3.00;29.60
17621;DHT22;8929;51.008;6.804;2023-02-15T04:48:27;3.00;29.30
17621;DHT22;8929;51.008;6.804;2023-02-15T04:50:52;3.00;28.00
17621;DHT22;8929;51.008;6.804;2023-02-15T04:53:18;2.90;31.50
17621;DHT22;8929;51.008;6.804;2023-02-15T04:55:43;2.90;33.10
17621;DHT22;8929;51.008;6.804;2023-02-15T04:58:08;2.90;33.80
17621;DHT22;8929;51.008;6.804;2023-02-15T05:00:34;2.90;35.80
17621;DHT22;8929;51.008;6.804;2023-02-15T05:02:59;2.90;36.50
17621;DHT22;8929;51.008;6.804;2023-02-15T05:05:25;2.90;31.90
17621;DHT22;8929;51.008;6.804;2023-02-15T05:07:50;2.80;33.40
17621;DHT22;8929;51.008;6.804;2023-02-15T05:10:16;2.80;35.90
17621;DHT22;8929;51.008;6.804;2023-02-15T05:12:41;2.80;36.30
17621;DHT22;8929;51.008;6.804;2023-02-15T05:15:07;2.80;38.00
17621;DHT22;8929;51.008;6.804;2023-02-15T05:17:33;2.80;33.00
17621;DHT22;8929;51.008;6.804;2023-02-15T05:19:58;2.80;36.00
17621;DHT22;8929;51.008;6.804;2023-02-15T05:22:24;2.80;37.40
17621;DHT22;8929;51.008;6.804;2023-02-15T05:24:49;2.80;37.80
17621;DHT22;8929;51.008;6.804;2023-02-15T05:27:33;2.80;34.30
17621;DHT22;8929;51.008;6.804;2023-02-15T05:30:18;2.80;30.60
17621;DHT22;8929;51.008;6.804;2023-02-15T05:32:43;2.80;34.80
17621;DHT22;8929;51.008;6.804;2023-02-15T05:35:11;2.80;34.90
17621;DHT22;8929;51.008;6.804;2023-02-15T05:37:37;2.90;35.00
17621;DHT22;8929;51.008;6.804;2023-02-15T05:40:03;2.80;30.20
17621;DHT22;8929;51.008;6.804;2023-02-15T05:42:28;2.80;34.20
17621;DHT22;8929;51.008;6.804;2023-02-15T05:44:54;2.80;30.00
17621;DHT22;8929;51.008;6.804;2023-02-15T05:47:19;2.80;34.10
17621;DHT22;8929;51.008;6.804;2023-02-15T05:49:45;2.80;33.10
17621;DHT22;8929;51.008;6.804;2023-02-15T05:52:10;2.80;30.70
17621;DHT22;8929;51.008;6.804;2023-02-15T05:54:37;2.80;30.80
17621;DHT22;8929;51.008;6.804;2023-02-15T06:00:58;2.70;29.10
17621;DHT22;8929;51.008;6.804;2023-02-15T06:03:37;2.70;33.50
17621;DHT22;8929;51.008;6.804;2023-02-15T06:24:52;2.60;40.00
17621;DHT22;8929;51.008;6.804;2023-02-15T06:31:15;2.60;38.60
17621;DHT22;8929;51.008;6.804;2023-02-15T06:36:51;2.60;41.80
17621;DHT22;8929;51.008;6.804;2023-02-15T06:39:56;2.60;40.30
17621;DHT22;8929;51.008;6.804;2023-02-15T08:07:51;3.30;1.00
17621;DHT22;8929;51.008;6.804;2023-02-15T08:10:42;3.30;1.00
17621;DHT22;8929;51.008;6.804;2023-02-15T08:13:26;3.40;1.00
17621;DHT22;8929;51.008;6.804;2023-02-15T08:15:52;3.50;1.00
17621;DHT22;8929;51.008;6.804;2023-02-15T08:18:20;3.50;1.00
17621;DHT22;8929;51.008;6.804;2023-02-15T08:27:04;3.80;1.00
17621;DHT22;8929;51.008;6.804;2023-02-15T08:36:17;4.00;1.00
17621;DHT22;8929;51.008;6.804;2023-02-15T08:48:16;4.30;1.00
17621;DHT22;8929;51.008;6.804;2023-02-15T08:57:47;4.80;1.00
17621;DHT22;8929;51.008;6.804;2023-02-15T09:00:29;4.90;1.00
17621;DHT22;8929;51.008;6.804;2023-02-15T09:03:21;5.00;1.00
17621;DHT22;8929;51.008;6.804;2023-02-15T09:06:11;5.10;1.00
17621;DHT22;8929;51.008;6.804;2023-02-15T09:09:24;5.10;1.00
17621;DHT22;8929;51.008;6.804;2023-02-15T09:12:06;5.30;1.00
17621;DHT22;8929;51.008;6.804;2023-02-15T09:14:37;5.40;1.00
17621;DHT22;8929;51.008;6.804;2023-02-15T09:17:35;5.50;1.00
17621;DHT22;8929;51.008;6.804;2023-02-15T09:32:00;6.20;1.00
17621;DHT22;8929;51.008;6.804;2023-02-15T09:34:48;6.30;99.90
17621;DHT22;8929;51.008;6.804;2023-02-15T09:37:25;6.50;99.90
17621;DHT22;8929;51.008;6.804;2023-02-15T09:48:45;7.00;1.00
17621;DHT22;8929;51.008;6.804;2023-02-15T10:24:43;8.60;99.90
17621;DHT22;8929;51.008;6.804;2023-02-15T10:27:42;8.80;1.00
17621;DHT22;8929;51.008;6.804;2023-02-15T11:00:05;10.40;1.00
17621;DHT22;8929;51.008;6.804;2023-02-15T11:05:37;10.90;99.90
17621;DHT22;8929;51.008;6.804;2023-02-15T11:08:09;11.30;55.80
17621;DHT22;8929;51.008;6.804;2023-02-15T11:13:53;13.70;1.00
17621;DHT22;8929;51.008;6.804;2023-02-15T11:20:09;19.20;99.90
17621;DHT22;8929;51.008;6.804;2023-02-15T11:25:56;22.60;99.90
17621;DHT22;8929;51.008;6.804;2023-02-15T11:28:53;23.60;99.90
17621;DHT22;8929;51.008;6.804;2023-02-15T11:31:25;25.10;99.90
17621;DHT22;8929;51.008;6.804;2023-02-15T11:34:31;26.00;1.00
17621;DHT22;8929;51.008;6.804;2023-02-15T11:43:06;28.40;1.00
17621;DHT22;8929;51.008;6.804;2023-02-15T11:45:46;27.70;1.00
17621;DHT22;8929;51.008;6.804;2023-02-15T11:52:14;28.90;1.00
17621;DHT22;8929;51.008;6.804;2023-02-15T11:58:39;28.60;1.00
17621;DHT22;8929;51.008;6.804;2023-02-15T12:31:59;28.60;1.00
17621;DHT22;8929;51.008;6.804;2023-02-15T12:37:34;26.00;99.90
17621;DHT22;8929;51.008;6.804;2023-02-15T12:40:56;24.80;99.90
17621;DHT22;8929;51.008;6.804;2023-02-15T13:15:22;25.50;99.90
17621;DHT22;8929;51.008;6.804;2023-02-15T13:21:19;27.00;99.90
17621;DHT22;8929;51.008;6.804;2023-02-15T13:47:57;24.40;99.90
17621;DHT22;8929;51.008;6.804;2023-02-15T13:53:36;24.10;99.90
17621;DHT22;8929;51.008;6.804;2023-02-15T14:01:58;20.70;99.90
17621;DHT22;8929;51.008;6.804;2023-02-15T14:16:27;18.00;99.90
17621;DHT22;8929;51.008;6.804;2023-02-15T14:30:45;19.70;99.90
17621;DHT22;8929;51.008;6.804;2023-02-15T14:36:07;18.80;99.90
17621;DHT22;8929;51.008;6.804;2023-02-15T14:41:53;18.20;99.90
17621;DHT22;8929;51.008;6.804;2023-02-15T14:44:37;17.80;99.90
17621;DHT22;8929;51.008;6.804;2023-02-15T14:47:09;17.50;99.90
17621;DHT22;8929;51.008;6.804;2023-02-15T14:49:36;17.10;99.90
17621;DHT22;8929;51.008;6.804;2023-02-15T14:52:03;17.00;99.90
17621;DHT22;8929;51.008;6.804;2023-02-15T14:59:27;16.50;99.90
17621;DHT22;8929;51.008;6.804;2023-02-15T15:04:34;16.30;99.90
17621;DHT22;8929;51.008;6.804;2023-02-15T15:07:08;16.10;99.90
17621;DHT22;8929;51.008;6.804;2023-02-15T15:09:35;16.00;99.90
17621;DHT22;8929;51.008;6.804;2023-02-15T15:14:56;15.50;99.90
17621;DHT22;8929;51.008;6.804;2023-02-15T15:20:14;15.20;99.90
17621;DHT22;8929;51.008;6.804;2023-02-15T15:42:12;14.30;1.00
17621;DHT22;8929;51.008;6.804;2023-02-15T15:56:39;13.90;1.00
17621;DHT22;8929;51.008;6.804;2023-02-15T15:59:37;13.80;1.00
17621;DHT22;8929;51.008;6.804;2023-02-15T16:08:55;13.40;1.00
17621;DHT22;8929;51.008;6.804;2023-02-15T16:12:14;13.30;1.00
17621;DHT22;8929;51.008;6.804;2023-02-15T16:21:25;13.10;1.00
17621;DHT22;8929;51.008;6.804;2023-02-15T16:29:14;12.70;1.00
17621;DHT22;8929;51.008;6.804;2023-02-15T16:31:40;12.60;1.00
17621;DHT22;8929;51.008;6.804;2023-02-15T16:40:05;12.30;99.90
17621;DHT22;8929;51.008;6.804;2023-02-15T16:42:31;12.20;99.90
17621;DHT22;8929;51.008;6.804;2023-02-15T16:45:05;12.10;99.90
17621;DHT22;8929;51.008;6.804;2023-02-15T16:47:33;12.00;99.90
17621;DHT22;8929;51.008;6.804;2023-02-15T16:50:02;11.80;1.00
17621;DHT22;8929;51.008;6.804;2023-02-15T16:52:29;11.70;80.00
17621;DHT22;8929;51.008;6.804;2023-02-15T16:54:57;11.60;99.90
17621;DHT22;8929;51.008;6.804;2023-02-15T16:57:25;11.50;1.00
17621;DHT22;8929;51.008;6.804;2023-02-15T16:59:52;11.50;99.90
17621;DHT22;8929;51.008;6.804;2023-02-15T17:02:24;11.40;1.00
17621;DHT22;8929;51.008;6.804;2023-02-15T17:05:07;11.40;1.00
17621;DHT22;8929;51.008;6.804;2023-02-15T17:07:33;11.20;1.00
17621;DHT22;8929;51.008;6.804;2023-02-15T17:09:59;11.10;1.00
17621;DHT22;8929;51.008;6.804;2023-02-15T17:15:29;10.80;99.90
17621;DHT22;8929;51.008;6.804;2023-02-15T17:18:38;10.60;1.00
17621;DHT22;8929;51.008;6.804;2023-02-15T17:20:47;10.60;99.90
17621;DHT22;8929;51.008;6.804;2023-02-15T17:26:21;10.40;90.40
17621;DHT22;8929;51.008;6.804;2023-02-15T17:32:02;10.20;1.00
17621;DHT22;8929;51.008;6.804;2023-02-15T17:42:46;9.80;99.90
17621;DHT22;8929;51.008;6.804;2023-02-15T17:45:13;9.70;1.00
17621;DHT22;8929;51.008;6.804;2023-02-15T17:47:38;9.70;1.00
17621;DHT22;8929;51.008;6.804;2023-02-15T17:50:05;9.60;1.00
17621;DHT22;8929;51.008;6.804;2023-02-15T17:52:31;9.70;99.90
17621;DHT22;8929;51.008;6.804;2023-02-15T17:54:57;9.70;99.90
17621;DHT22;8929;51.008;6.804;2023-02-15T17:57:41;9.80;88.70
17621;DHT22;8929;51.008;6.804;2023-02-15T18:00:07;9.80;99.90
17621;DHT22;8929;51.008;6.804;2023-02-15T18:02:51;9.90;1.00
17621;DHT22;8929;51.008;6.804;2023-02-15T18:05:36;9.90;1.00
17621;DHT22;8929;51.008;6.804;2023-02-15T18:08:21;9.90;99.90
17621;DHT22;8929;51.008;6.804;2023-02-15T18:11:07;10.00;1.00
17621;DHT22;8929;51.008;6.804;2023-02-15T18:13:52;9.90;99.90
17621;DHT22;8929;51.008;6.804;2023-02-15T18:16:19;10.00;1.00
17621;DHT22;8929;51.008;6.804;2023-02-15T18:18:46;10.00;1.00
17621;DHT22;8929;51.008;6.804;2023-02-15T18:21:14;9.90;1.00
17621;DHT22;8929;51.008;6.804;2023-02-15T18:23:40;9.90;1.00
17621;DHT22;8929;51.008;6.804;2023-02-15T18:26:08;9.90;99.90
17621;DHT22;8929;51.008;6.804;2023-02-15T18:28:34;9.90;99.90
17621;DHT22;8929;51.008;6.804;2023-02-15T18:31:00;9.90;99.90
17621;DHT22;8929;51.008;6.804;2023-02-15T18:35:54;9.80;99.90
17621;DHT22;8929;51.008;6.804;2023-02-15T18:38:19;9.80;1.00
17621;DHT22;8929;51.008;6.804;2023-02-15T18:40:46;9.80;34.70
17621;DHT22;8929;51.008;6.804;2023-02-15T18:43:11;9.70;28.50
17621;DHT22;8929;51.008;6.804;2023-02-15T18:45:37;9.60;99.90
17621;DHT22;8929;51.008;6.804;2023-02-15T18:48:04;9.60;99.90
17621;DHT22;8929;51.008;6.804;2023-02-15T18:50:33;9.50;1.00
17621;DHT22;8929;51.008;6.804;2023-02-15T18:52:58;9.40;1.00
17621;DHT22;8929;51.008;6.804;2023-02-15T18:55:25;9.40;1.00
17621;DHT22;8929;51.008;6.804;2023-02-15T18:57:52;9.30;1.00
17621;DHT22;8929;51.008;6.804;2023-02-15T19:00:19;9.20;21.50
17621;DHT22;8929;51.008;6.804;2023-02-15T19:02:45;9.10;99.90
17621;DHT22;8929;51.008;6.804;2023-02-15T19:05:11;9.10;99.90
17621;DHT22;8929;51.008;6.804;2023-02-15T19:07:37;9.00;37.80
17621;DHT22;8929;51.008;6.804;2023-02-15T19:10:04;9.00;99.90
17621;DHT22;8929;51.008;6.804;2023-02-15T19:12:30;9.00;1.00
17621;DHT22;8929;51.008;6.804;2023-02-15T19:14:55;9.00;1.00
17621;DHT22;8929;51.008;6.804;2023-02-15T19:17:22;8.90;1.00
17621;DHT22;8929;51.008;6.804;2023-02-15T19:19:48;8.90;27.50
17621;DHT22;8929;51.008;6.804;2023-02-15T19:22:14;8.90;1.00
17621;DHT22;8929;51.008;6.804;2023-02-15T19:24:41;8.90;6.00
17621;DHT22;8929;51.008;6.804;2023-02-15T19:27:06;8.90;10.30
17621;DHT22;8929;51.008;6.804;2023-02-15T19:29:36;8.90;32.70
17621;DHT22;8929;51.008;6.804;2023-02-15T19:32:01;8.80;16.30
17621;DHT22;8929;51.008;6.804;2023-02-15T19:34:26;8.80;94.80
17621;DHT22;8929;51.008;6.804;2023-02-15T19:36:52;8.80;47.00
17621;DHT22;8929;51.008;6.804;2023-02-15T19:39:22;8.80;40.40
17621;DHT22;8929;51.008;6.804;2023-02-15T19:41:49;8.80;34.20
17621;DHT22;8929;51.008;6.804;2023-02-15T19:44:15;8.80;43.20
17621;DHT22;8929;51.008;6.804;2023-02-15T19:46:41;8.80;70.20
17621;DHT22;8929;51.008;6.804;2023-02-15T19:49:07;8.70;69.90
17621;DHT22;8929;51.008;6.804;2023-02-15T19:51:34;8.80;51.70
17621;DHT22;8929;51.008;6.804;2023-02-15T19:53:59;8.70;94.40
17621;DHT22;8929;51.008;6.804;2023-02-15T19:56:24;8.70;99.90
17621;DHT22;8929;51.008;6.804;2023-02-15T19:58:51;8.60;99.90
17621;DHT22;8929;51.008;6.804;2023-02-15T20:01:19;8.60;99.90
17621;DHT22;8929;51.008;6.804;2023-02-15T20:03:46;8.60;99.90
17621;DHT22;8929;51.008;6.804;2023-02-15T20:06:12;8.50;99.90
17621;DHT22;8929;51.008;6.804;2023-02-15T20:08:38;8.40;99.90
17621;DHT22;8929;51.008;6.804;2023-02-15T20:11:08;8.40;99.90
17621;DHT22;8929;51.008;6.804;2023-02-15T20:13:34;8.30;99.90
17621;DHT22;8929;51.008;6.804;2023-02-15T20:15:59;8.20;99.90
17621;DHT22;8929;51.008;6.804;2023-02-15T20:18:29;8.20;99.90
17621;DHT22;8929;51.008;6.804;2023-02-15T20:20:54;8.20;99.90
17621;DHT22;8929;51.008;6.804;2023-02-15T20:23:21;8.10;99.90
17621;DHT22;8929;51.008;6.804;2023-02-15T20:25:48;8.10;99.90
17621;DHT22;8929;51.008;6.804;2023-02-15T20:28:14;8.10;99.90
17621;DHT22;8929;51.008;6.804;2023-02-15T20:30:40;8.10;99.90
17621;DHT22;8929;51.008;6.804;2023-02-15T20:33:06;8.10;99.90
17621;DHT22;8929;51.008;6.804;2023-02-15T20:35:32;8.00;99.90
17621;DHT22;8929;51.008;6.804;2023-02-15T20:37:57;8.10;99.90
17621;DHT22;8929;51.008;6.804;2023-02-15T20:40:27;8.10;99.90
17621;DHT22;8929;51.008;6.804;2023-02-15T20:42:54;8.00;99.90
17621;DHT22;8929;51.008;6.804;2023-02-15T20:45:20;7.90;99.90
17621;DHT22;8929;51.008;6.804;2023-02-15T20:47:47;7.90;99.90
17621;DHT22;8929;51.008;6.804;2023-02-15T20:50:13;7.80;99.90
17621;DHT22;8929;51.008;6.804;2023-02-15T20:52:39;7.80;1.00
17621;DHT22;8929;51.008;6.804;2023-02-15T21:00:14;7.70;1.00
17621;DHT22;8929;51.008;6.804;2023-02-15T21:03:00;7.70;1.00
17621;DHT22;8929;51.008;6.804;2023-02-15T21:05:57;7.70;1.00
17621;DHT22;8929;51.008;6.804;2023-02-15T21:09:37;7.70;1.00
17621;DHT22;8929;51.008;6.804;2023-02-15T21:11:45;7.60;1.00
17621;DHT22;8929;51.008;6.804;2023-02-15T21:14:16;7.60;1.00
17621;DHT22;8929;51.008;6.804;2023-02-15T21:19:34;7.60;1.00
17621;DHT22;8929;51.008;6.804;2023-02-15T21:25:17;7.50;1.00
17621;DHT22;8929;51.008;6.804;2023-02-15T21:28:04;7.40;1.00
17621;DHT22;8929;51.008;6.804;2023-02-15T21:30:38;7.30;1.00
17621;DHT22;8929;51.008;6.804;2023-02-15T21:33:28;7.30;1.00
17621;DHT22;8929;51.008;6.804;2023-02-15T21:36:02;7.20;1.00
17621;DHT22;8929;51.008;6.804;2023-02-15T21:38:35;7.20;1.00
17621;DHT22;8929;51.008;6.804;2023-02-15T21:41:03;7.10;1.00
17621;DHT22;8929;51.008;6.804;2023-02-15T21:50:00;6.80;1.00
17621;DHT22;8929;51.008;6.804;2023-02-15T21:52:48;6.70;1.00
17621;DHT22;8929;51.008;6.804;2023-02-15T21:55:14;6.70;1.00
17621;DHT22;8929;51.008;6.804;2023-02-15T21:57:40;6.60;1.00
17621;DHT22;8929;51.008;6.804;2023-02-15T22:00:23;6.60;1.00
17621;DHT22;8929;51.008;6.804;2023-02-15T22:03:00;6.50;1.00
17621;DHT22;8929;51.008;6.804;2023-02-15T22:05:35;6.40;1.00
17621;DHT22;8929;51.008;6.804;2023-02-15T22:08:10;6.30;1.00
17621;DHT22;8929;51.008;6.804;2023-02-15T22:11:40;6.30;1.00
17621;DHT22;8929;51.008;6.804;2023-02-15T22:14:02;6.20;1.00
17621;DHT22;8929;51.008;6.804;2023-02-15T22:16:40;6.10;1.00
17621;DHT22;8929;51.008;6.804;2023-02-15T22:19:08;6.00;1.00
17621;DHT22;8929;51.008;6.804;2023-02-15T22:21:46;6.00;1.00
17621;DHT22;8929;51.008;6.804;2023-02-15T22:24:11;5.90;1.00
17621;DHT22;8929;51.008;6.804;2023-02-15T22:26:40;5.80;1.00
17621;DHT22;8929;51.008;6.804;2023-02-15T22:29:12;5.70;1.00
17621;DHT22;8929;51.008;6.804;2023-02-15T22:31:41;5.70;1.00
17621;DHT22;8929;51.008;6.804;2023-02-15T22:36:52;5.70;1.00
17621;DHT22;8929;51.008;6.804;2023-02-15T22:39:20;5.80;1.00
17621;DHT22;8929;51.008;6.804;2023-02-15T22:41:49;5.80;1.00
17621;DHT22;8929;51.008;6.804;2023-02-15T22:44:24;5.80;1.00
17621;DHT22;8929;51.008;6.804;2023-02-15T22:46:54;5.80;1.00
17621;DHT22;8929;51.008;6.804;2023-02-15T22:49:23;5.80;1.00
17621;DHT22;8929;51.008;6.804;2023-02-15T22:51:58;5.80;1.00
17621;DHT22;8929;51.008;6.804;2023-02-15T22:54:24;5.80;1.00
17621;DHT22;8929;51.008;6.804;2023-02-15T22:56:50;5.80;1.00
17621;DHT22;8929;51.008;6.804;2023-02-15T22:59:20;5.80;1.00
17621;DHT22;8929;51.008;6.804;2023-02-15T23:01:48;5.80;1.00
17621;DHT22;8929;51.008;6.804;2023-02-15T23:04:17;5.80;1.00
17621;DHT22;8929;51.008;6.804;2023-02-15T23:06:55;5.80;1.00
17621;DHT22;8929;51.008;6.804;2023-02-15T23:09:29;5.80;1.00
17621;DHT22;8929;51.008;6.804;2023-02-15T23:12:00;5.80;1.00
17621;DHT22;8929;51.008;6.804;2023-02-15T23:14:33;5.70;1.00
17621;DHT22;8929;51.008;6.804;2023-02-15T23:17:01;5.70;1.00
17621;DHT22;8929;51.008;6.804;2023-02-15T23:19:29;5.70;1.00
17621;DHT22;8929;51.008;6.804;2023-02-15T23:22:06;5.70;1.00
17621;DHT22;8929;51.008;6.804;2023-02-15T23:24:42;5.70;1.00
17621;DHT22;8929;51.008;6.804;2023-02-15T23:27:14;5.60;1.00
17621;DHT22;8929;51.008;6.804;2023-02-15T23:30:19;5.60;1.00
17621;DHT22;8929;51.008;6.804;2023-02-15T23:33:23;5.70;1.00
17621;DHT22;8929;51.008;6.804;2023-02-15T23:35:53;5.70;1.00
17621;DHT22;8929;51.008;6.804;2023-02-15T23:38:23;5.60;1.00
17621;DHT22;8929;51.008;6.804;2023-02-15T23:41:02;5.60;1.00
17621;DHT22;8929;51.008;6.804;2023-02-15T23:44:03;5.60;1.00
17621;DHT22;8929;51.008;6.804;2023-02-15T23:49:02;5.50;1.00
17621;DHT22;8929;51.008;6.804;2023-02-15T23:51:49;5.50;1.00
17621;DHT22;8929;51.008;6.804;2023-02-15T23:54:24;5.50;1.00
17621;DHT22;8929;51.008;6.804;2023-02-15T23:56:54;5.50;1.00
17621;DHT22;8929;51.008;6.804;2023-02-15T23:59:22;5.40;1.00
